sensor_id;sensor_type;location;lat;lon;timestamp;temperature;humidity
2721;DHT22;1368;49.484;11.112;2022-12-18T00:02:14;-7.90;99.90
2721;DHT22;1368;49.484;11.112;2022-12-18T00:04:40;-7.90;99.90
2721;DHT22;1368;49.484;11.112;2022-12-18T00:07:05;-8.00;99.90
2721;DHT22;1368;49.484;11.112;2022-12-18T00:09:31;-8.00;99.90
2721;DHT22;1368;49.484;11.112;2022-12-18T00:11:56;-8.00;99.90
2721;DHT22;1368;49.484;11.112;2022-12-18T00:14:22;-8.10;99.90
2721;DHT22;1368;49.484;11.112;2022-12-18T00:16:48;-8.00;99.90
2721;DHT22;1368;49.484;11.112;2022-12-18T00:19:14;-8.20;99.90
2721;DHT22;1368;49.484;11.112;2022-12-18T00:21:40;-8.20;99.90
2721;DHT22;1368;49.484;11.112;2022-12-18T00:24:07;-8.20;99.90
2721;DHT22;1368;49.484;11.112;2022-12-18T00:26:34;-8.20;99.90
2721;DHT22;1368;49.484;11.112;2022-12-18T00:29:04;-8.30;99.90
2721;DHT22;1368;49.484;11.112;2022-12-18T00:31:31;-8.60;99.90
2721;DHT22;1368;49.484;11.112;2022-12-18T00:33:57;-8.00;99.90
2721;DHT22;1368;49.484;11.112;2022-12-18T00:36:26;-8.80;99.90
2721;DHT22;1368;49.484;11.112;2022-12-18T00:38:53;-8.70;99.90
2721;DHT22;1368;49.484;11.112;2022-12-18T00:41:19;-8.80;99.90
2721;DHT22;1368;49.484;11.112;2022-12-18T00:44:05;-8.90;99.90
2721;DHT22;1368;49.484;11.112;2022-12-18T00:46:31;-9.00;99.90
2721;DHT22;1368;49.484;11.112;2022-12-18T00:48:57;-9.00;99.90
2721;DHT22;1368;49.484;11.112;2022-12-18T00:51:22;-8.30;99.90
2721;DHT22;1368;49.484;11.112;2022-12-18T00:53:48;-8.30;99.90
2721;DHT22;1368;49.484;11.112;2022-12-18T00:56:14;-8.90;99.90
2721;DHT22;1368;49.484;11.112;2022-12-18T00:58:39;-9.00;99.90
2721;DHT22;1368;49.484;11.112;2022-12-18T01:01:05;-9.10;99.90
2721;DHT22;1368;49.484;11.112;2022-12-18T01:03:31;-9.20;99.90
2721;DHT22;1368;49.484;11.112;2022-12-18T01:05:56;-8.90;99.90
2721;DHT22;1368;49.484;11.112;2022-12-18T01:08:22;-8.30;99.90
2721;DHT22;1368;49.484;11.112;2022-12-18T01:10:48;-8.50;99.90
2721;DHT22;1368;49.484;11.112;2022-12-18T01:13:14;-9.10;99.90
2721;DHT22;1368;49.484;11.112;2022-12-18T01:15:39;-8.50;99.90
2721;DHT22;1368;49.484;11.112;2022-12-18T01:18:06;-9.10;99.90
2721;DHT22;1368;49.484;11.112;2022-12-18T01:20:32;-9.00;99.90
2721;DHT22;1368;49.484;11.112;2022-12-18T01:22:57;-8.80;99.90
2721;DHT22;1368;49.484;11.112;2022-12-18T01:25:23;-8.50;99.90
2721;DHT22;1368;49.484;11.112;2022-12-18T01:27:49;-8.40;99.90
2721;DHT22;1368;49.484;11.112;2022-12-18T01:30:14;-8.40;99.90
2721;DHT22;1368;49.484;11.112;2022-12-18T01:32:40;-7.90;99.90
2721;DHT22;1368;49.484;11.112;2022-12-18T01:35:06;-8.30;99.90
2721;DHT22;1368;49.484;11.112;2022-12-18T01:37:32;-8.20;99.90
2721;DHT22;1368;49.484;11.112;2022-12-18T01:39:57;-7.60;99.90
2721;DHT22;1368;49.484;11.112;2022-12-18T01:42:23;-8.30;99.90
2721;DHT22;1368;49.484;11.112;2022-12-18T01:47:46;-8.30;99.90
2721;DHT22;1368;49.484;11.112;2022-12-18T01:50:33;-8.20;99.90
2721;DHT22;1368;49.484;11.112;2022-12-18T01:53:10;-8.00;99.90
2721;DHT22;1368;49.484;11.112;2022-12-18T01:55:51;-7.90;99.90
2721;DHT22;1368;49.484;11.112;2022-12-18T01:58:18;-7.80;99.90
2721;DHT22;1368;49.484;11.112;2022-12-18T02:00:44;-7.70;99.90
2721;DHT22;1368;49.484;11.112;2022-12-18T02:03:10;-7.70;99.90
2721;DHT22;1368;49.484;11.112;2022-12-18T02:05:48;-7.70;99.90
2721;DHT22;1368;49.484;11.112;2022-12-18T02:08:32;-7.70;99.90
2721;DHT22;1368;49.484;11.112;2022-12-18T02:11:13;-7.80;99.90
2721;DHT22;1368;49.484;11.112;2022-12-18T02:16:53;-7.80;99.90
2721;DHT22;1368;49.484;11.112;2022-12-18T02:28:26;-7.90;99.90
2721;DHT22;1368;49.484;11.112;2022-12-18T02:30:56;-7.40;99.90
2721;DHT22;1368;49.484;11.112;2022-12-18T02:33:25;-8.50;99.90
2721;DHT22;1368;49.484;11.112;2022-12-18T02:35:53;-7.80;99.90
2721;DHT22;1368;49.484;11.112;2022-12-18T02:38:19;-8.30;99.90
2721;DHT22;1368;49.484;11.112;2022-12-18T02:40:46;-8.20;99.90
2721;DHT22;1368;49.484;11.112;2022-12-18T02:43:14;-8.10;99.90
2721;DHT22;1368;49.484;11.112;2022-12-18T02:45:55;-8.10;99.90
2721;DHT22;1368;49.484;11.112;2022-12-18T02:48:33;-8.10;99.90
2721;DHT22;1368;49.484;11.112;2022-12-18T02:51:08;-8.00;99.90
2721;DHT22;1368;49.484;11.112;2022-12-18T02:53:49;-7.90;99.90
2721;DHT22;1368;49.484;11.112;2022-12-18T02:56:21;-7.90;99.90
2721;DHT22;1368;49.484;11.112;2022-12-18T02:59:08;-8.00;99.90
2721;DHT22;1368;49.484;11.112;2022-12-18T03:01:44;-7.90;99.90
2721;DHT22;1368;49.484;11.112;2022-12-18T03:04:48;-7.90;99.90
2721;DHT22;1368;49.484;11.112;2022-12-18T03:07:16;-8.00;99.90
2721;DHT22;1368;49.484;11.112;2022-12-18T03:09:46;-7.90;99.90
2721;DHT22;1368;49.484;11.112;2022-12-18T03:12:27;-7.90;99.90
2721;DHT22;1368;49.484;11.112;2022-12-18T03:17:36;-8.00;99.90
2721;DHT22;1368;49.484;11.112;2022-12-18T03:20:10;-7.50;99.90
2721;DHT22;1368;49.484;11.112;2022-12-18T03:22:38;-8.10;99.90
2721;DHT22;1368;49.484;11.112;2022-12-18T03:25:07;-7.90;99.90
2721;DHT22;1368;49.484;11.112;2022-12-18T03:27:37;-8.20;99.90
2721;DHT22;1368;49.484;11.112;2022-12-18T03:30:09;-8.10;99.90
2721;DHT22;1368;49.484;11.112;2022-12-18T03:35:13;-7.80;99.90
2721;DHT22;1368;49.484;11.112;2022-12-18T03:37:39;-7.40;99.90
2721;DHT22;1368;49.484;11.112;2022-12-18T03:40:06;-8.00;99.90
2721;DHT22;1368;49.484;11.112;2022-12-18T03:45:26;-7.80;99.90
2721;DHT22;1368;49.484;11.112;2022-12-18T03:48:14;-7.60;99.90
2721;DHT22;1368;49.484;11.112;2022-12-18T03:51:57;-7.40;99.90
2721;DHT22;1368;49.484;11.112;2022-12-18T03:53:59;-7.30;99.90
2721;DHT22;1368;49.484;11.112;2022-12-18T03:56:29;-7.30;99.90
2721;DHT22;1368;49.484;11.112;2022-12-18T03:58:56;-7.40;99.90
2721;DHT22;1368;49.484;11.112;2022-12-18T04:01:28;-7.30;99.90
2721;DHT22;1368;49.484;11.112;2022-12-18T04:03:57;-7.30;99.90
2721;DHT22;1368;49.484;11.112;2022-12-18T04:06:25;-7.40;99.90
2721;DHT22;1368;49.484;11.112;2022-12-18T04:08:51;-7.60;99.90
2721;DHT22;1368;49.484;11.112;2022-12-18T04:11:17;-7.70;99.90
2721;DHT22;1368;49.484;11.112;2022-12-18T04:13:43;-7.80;99.90
2721;DHT22;1368;49.484;11.112;2022-12-18T04:16:09;-7.70;99.90
2721;DHT22;1368;49.484;11.112;2022-12-18T04:18:35;-7.80;99.90
2721;DHT22;1368;49.484;11.112;2022-12-18T04:21:01;-7.70;99.90
2721;DHT22;1368;49.484;11.112;2022-12-18T04:23:27;-7.60;99.90
2721;DHT22;1368;49.484;11.112;2022-12-18T04:25:53;-7.50;99.90
2721;DHT22;1368;49.484;11.112;2022-12-18T04:28:19;-7.40;99.90
2721;DHT22;1368;49.484;11.112;2022-12-18T04:30:45;-7.20;99.90
2721;DHT22;1368;49.484;11.112;2022-12-18T04:33:11;-6.70;99.90
2721;DHT22;1368;49.484;11.112;2022-12-18T04:35:39;-6.70;99.90
2721;DHT22;1368;49.484;11.112;2022-12-18T04:38:06;-6.60;99.90
2721;DHT22;1368;49.484;11.112;2022-12-18T04:40:34;-6.60;99.90
2721;DHT22;1368;49.484;11.112;2022-12-18T04:43:00;-6.70;99.90
2721;DHT22;1368;49.484;11.112;2022-12-18T04:45:26;-6.70;99.90
2721;DHT22;1368;49.484;11.112;2022-12-18T04:47:51;-6.90;99.90
2721;DHT22;1368;49.484;11.112;2022-12-18T04:50:17;-7.00;99.90
2721;DHT22;1368;49.484;11.112;2022-12-18T04:52:43;-7.00;99.90
2721;DHT22;1368;49.484;11.112;2022-12-18T04:55:08;-6.80;99.90
2721;DHT22;1368;49.484;11.112;2022-12-18T04:57:34;-7.10;99.90
2721;DHT22;1368;49.484;11.112;2022-12-18T04:59:59;-7.00;99.90
2721;DHT22;1368;49.484;11.112;2022-12-18T05:02:25;-7.00;99.90
2721;DHT22;1368;49.484;11.112;2022-12-18T05:04:50;-6.90;99.90
2721;DHT22;1368;49.484;11.112;2022-12-18T05:07:16;-6.80;99.90
2721;DHT22;1368;49.484;11.112;2022-12-18T05:09:42;-6.80;99.90
2721;DHT22;1368;49.484;11.112;2022-12-18T05:12:07;-6.80;99.90
2721;DHT22;1368;49.484;11.112;2022-12-18T05:14:33;-6.80;99.90
2721;DHT22;1368;49.484;11.112;2022-12-18T05:16:58;-6.90;99.90
2721;DHT22;1368;49.484;11.112;2022-12-18T05:19:24;-7.00;99.90
2721;DHT22;1368;49.484;11.112;2022-12-18T05:21:49;-7.00;99.90
2721;DHT22;1368;49.484;11.112;2022-12-18T05:24:15;-7.00;99.90
2721;DHT22;1368;49.484;11.112;2022-12-18T05:26:40;-7.00;99.90
2721;DHT22;1368;49.484;11.112;2022-12-18T05:29:06;-7.00;99.90
2721;DHT22;1368;49.484;11.112;2022-12-18T05:31:31;-7.00;99.90
2721;DHT22;1368;49.484;11.112;2022-12-18T05:33:57;-6.80;99.90
2721;DHT22;1368;49.484;11.112;2022-12-18T05:36:23;-6.70;99.90
2721;DHT22;1368;49.484;11.112;2022-12-18T05:38:48;-6.70;99.90
2721;DHT22;1368;49.484;11.112;2022-12-18T05:41:14;-6.70;99.90
2721;DHT22;1368;49.484;11.112;2022-12-18T05:43:40;-6.60;99.90
2721;DHT22;1368;49.484;11.112;2022-12-18T05:46:08;-6.60;99.90
2721;DHT22;1368;49.484;11.112;2022-12-18T05:48:34;-6.70;99.90
2721;DHT22;1368;49.484;11.112;2022-12-18T05:51:05;-6.70;99.90
2721;DHT22;1368;49.484;11.112;2022-12-18T05:53:31;-6.60;99.90
2721;DHT22;1368;49.484;11.112;2022-12-18T05:56:00;-6.50;99.90
2721;DHT22;1368;49.484;11.112;2022-12-18T05:58:26;-6.50;99.90
2721;DHT22;1368;49.484;11.112;2022-12-18T06:00:52;-6.40;99.90
2721;DHT22;1368;49.484;11.112;2022-12-18T06:03:17;-6.40;99.90
2721;DHT22;1368;49.484;11.112;2022-12-18T06:05:44;-6.40;99.90
2721;DHT22;1368;49.484;11.112;2022-12-18T06:08:11;-6.30;99.90
2721;DHT22;1368;49.484;11.112;2022-12-18T06:10:37;-6.70;99.90
2721;DHT22;1368;49.484;11.112;2022-12-18T06:13:02;-6.40;99.90
2721;DHT22;1368;49.484;11.112;2022-12-18T06:15:28;-6.30;99.90
2721;DHT22;1368;49.484;11.112;2022-12-18T06:17:54;-6.30;99.90
2721;DHT22;1368;49.484;11.112;2022-12-18T06:20:19;-6.30;99.90
2721;DHT22;1368;49.484;11.112;2022-12-18T06:22:45;-6.20;99.90
2721;DHT22;1368;49.484;11.112;2022-12-18T06:25:11;-6.00;99.90
2721;DHT22;1368;49.484;11.112;2022-12-18T06:27:36;-6.10;99.90
2721;DHT22;1368;49.484;11.112;2022-12-18T06:30:04;-6.10;99.90
2721;DHT22;1368;49.484;11.112;2022-12-18T06:32:30;-6.00;99.90
2721;DHT22;1368;49.484;11.112;2022-12-18T06:34:55;-5.90;99.90
2721;DHT22;1368;49.484;11.112;2022-12-18T06:37:21;-6.00;99.90
2721;DHT22;1368;49.484;11.112;2022-12-18T06:39:51;-6.00;99.90
2721;DHT22;1368;49.484;11.112;2022-12-18T06:42:17;-6.00;99.90
2721;DHT22;1368;49.484;11.112;2022-12-18T06:44:42;-5.90;99.90
2721;DHT22;1368;49.484;11.112;2022-12-18T06:47:08;-5.90;99.90
2721;DHT22;1368;49.484;11.112;2022-12-18T06:49:34;-5.70;99.90
2721;DHT22;1368;49.484;11.112;2022-12-18T06:51:59;-5.60;99.90
2721;DHT22;1368;49.484;11.112;2022-12-18T06:54:25;-5.60;99.90
2721;DHT22;1368;49.484;11.112;2022-12-18T06:56:51;-5.70;99.90
2721;DHT22;1368;49.484;11.112;2022-12-18T06:59:16;-5.50;99.90
2721;DHT22;1368;49.484;11.112;2022-12-18T07:01:42;-5.40;99.90
2721;DHT22;1368;49.484;11.112;2022-12-18T07:04:07;-5.30;99.90
2721;DHT22;1368;49.484;11.112;2022-12-18T07:06:33;-5.30;99.90
2721;DHT22;1368;49.484;11.112;2022-12-18T07:08:58;-5.20;99.90
2721;DHT22;1368;49.484;11.112;2022-12-18T07:11:24;-5.30;99.90
2721;DHT22;1368;49.484;11.112;2022-12-18T07:13:50;-5.40;99.90
2721;DHT22;1368;49.484;11.112;2022-12-18T07:16:18;-5.30;99.90
2721;DHT22;1368;49.484;11.112;2022-12-18T07:18:43;-5.30;99.90
2721;DHT22;1368;49.484;11.112;2022-12-18T07:21:12;-5.30;99.90
2721;DHT22;1368;49.484;11.112;2022-12-18T07:23:38;-5.40;99.90
2721;DHT22;1368;49.484;11.112;2022-12-18T07:26:06;-5.30;99.90
2721;DHT22;1368;49.484;11.112;2022-12-18T07:28:32;-5.10;99.90
2721;DHT22;1368;49.484;11.112;2022-12-18T07:31:02;-5.20;99.90
2721;DHT22;1368;49.484;11.112;2022-12-18T07:33:28;-5.30;99.90
2721;DHT22;1368;49.484;11.112;2022-12-18T07:35:53;-5.40;99.90
2721;DHT22;1368;49.484;11.112;2022-12-18T07:38:19;-5.30;99.90
2721;DHT22;1368;49.484;11.112;2022-12-18T07:40:45;-5.40;99.90
2721;DHT22;1368;49.484;11.112;2022-12-18T07:43:10;-5.30;99.90
2721;DHT22;1368;49.484;11.112;2022-12-18T07:45:36;-5.10;99.90
2721;DHT22;1368;49.484;11.112;2022-12-18T07:48:01;-5.00;99.90
2721;DHT22;1368;49.484;11.112;2022-12-18T07:50:27;-4.80;99.90
2721;DHT22;1368;49.484;11.112;2022-12-18T07:52:52;-4.70;99.90
2721;DHT22;1368;49.484;11.112;2022-12-18T07:55:18;-4.50;99.90
2721;DHT22;1368;49.484;11.112;2022-12-18T07:57:43;-4.60;99.90
2721;DHT22;1368;49.484;11.112;2022-12-18T08:00:09;-4.60;99.90
2721;DHT22;1368;49.484;11.112;2022-12-18T08:02:35;-4.60;99.90
2721;DHT22;1368;49.484;11.112;2022-12-18T08:05:01;-4.50;99.90
2721;DHT22;1368;49.484;11.112;2022-12-18T08:07:26;-4.40;99.90
2721;DHT22;1368;49.484;11.112;2022-12-18T08:09:52;-4.30;99.90
2721;DHT22;1368;49.484;11.112;2022-12-18T08:12:17;-4.10;99.90
2721;DHT22;1368;49.484;11.112;2022-12-18T08:14:43;-4.10;99.90
2721;DHT22;1368;49.484;11.112;2022-12-18T08:17:08;-3.90;99.90
2721;DHT22;1368;49.484;11.112;2022-12-18T08:19:34;-3.90;99.90
2721;DHT22;1368;49.484;11.112;2022-12-18T08:21:59;-3.70;99.90
2721;DHT22;1368;49.484;11.112;2022-12-18T08:24:25;-3.60;99.90
2721;DHT22;1368;49.484;11.112;2022-12-18T08:26:51;-3.50;99.90
2721;DHT22;1368;49.484;11.112;2022-12-18T08:29:16;-3.40;99.90
2721;DHT22;1368;49.484;11.112;2022-12-18T08:31:42;-3.40;99.90
2721;DHT22;1368;49.484;11.112;2022-12-18T08:34:08;-3.30;99.90
2721;DHT22;1368;49.484;11.112;2022-12-18T08:36:33;-3.20;99.90
2721;DHT22;1368;49.484;11.112;2022-12-18T08:38:59;-2.90;99.90
2721;DHT22;1368;49.484;11.112;2022-12-18T08:41:24;-2.90;99.90
2721;DHT22;1368;49.484;11.112;2022-12-18T08:43:50;-2.80;99.90
2721;DHT22;1368;49.484;11.112;2022-12-18T08:46:40;-2.90;99.90
2721;DHT22;1368;49.484;11.112;2022-12-18T08:49:06;-3.00;99.90
2721;DHT22;1368;49.484;11.112;2022-12-18T08:51:32;-3.00;99.90
2721;DHT22;1368;49.484;11.112;2022-12-18T08:53:58;-2.90;99.90
2721;DHT22;1368;49.484;11.112;2022-12-18T08:56:24;-2.80;99.90
2721;DHT22;1368;49.484;11.112;2022-12-18T08:58:53;-2.90;99.90
2721;DHT22;1368;49.484;11.112;2022-12-18T09:01:19;-3.00;99.90
2721;DHT22;1368;49.484;11.112;2022-12-18T09:03:44;-2.80;99.90
2721;DHT22;1368;49.484;11.112;2022-12-18T09:06:13;-2.70;99.90
2721;DHT22;1368;49.484;11.112;2022-12-18T09:08:39;-2.60;99.90
2721;DHT22;1368;49.484;11.112;2022-12-18T09:11:14;-2.40;99.90
2721;DHT22;1368;49.484;11.112;2022-12-18T09:13:40;-2.30;99.90
2721;DHT22;1368;49.484;11.112;2022-12-18T09:16:06;-2.30;99.90
2721;DHT22;1368;49.484;11.112;2022-12-18T09:18:31;-1.80;99.90
2721;DHT22;1368;49.484;11.112;2022-12-18T09:20:57;-2.10;99.90
2721;DHT22;1368;49.484;11.112;2022-12-18T09:23:22;-2.20;99.90
2721;DHT22;1368;49.484;11.112;2022-12-18T09:25:48;-2.00;99.90
2721;DHT22;1368;49.484;11.112;2022-12-18T09:28:16;-1.90;99.90
2721;DHT22;1368;49.484;11.112;2022-12-18T09:30:48;-1.80;99.90
2721;DHT22;1368;49.484;11.112;2022-12-18T09:33:14;-2.10;99.90
2721;DHT22;1368;49.484;11.112;2022-12-18T09:35:41;-2.30;99.90
2721;DHT22;1368;49.484;11.112;2022-12-18T09:38:07;-2.50;99.90
2721;DHT22;1368;49.484;11.112;2022-12-18T09:40:42;-2.70;99.90
2721;DHT22;1368;49.484;11.112;2022-12-18T09:43:14;-2.70;99.90
2721;DHT22;1368;49.484;11.112;2022-12-18T09:45:51;-2.50;99.90
2721;DHT22;1368;49.484;11.112;2022-12-18T09:48:42;-2.50;99.90
2721;DHT22;1368;49.484;11.112;2022-12-18T09:51:15;-2.40;99.90
2721;DHT22;1368;49.484;11.112;2022-12-18T09:53:45;-2.50;99.90
2721;DHT22;1368;49.484;11.112;2022-12-18T09:56:16;-2.40;99.90
2721;DHT22;1368;49.484;11.112;2022-12-18T09:59:00;-2.30;99.90
2721;DHT22;1368;49.484;11.112;2022-12-18T10:01:27;-2.60;99.90
2721;DHT22;1368;49.484;11.112;2022-12-18T10:03:53;-2.60;99.90
2721;DHT22;1368;49.484;11.112;2022-12-18T10:09:24;-2.40;99.90
2721;DHT22;1368;49.484;11.112;2022-12-18T10:12:02;-2.40;99.90
2721;DHT22;1368;49.484;11.112;2022-12-18T10:14:51;-2.20;99.90
2721;DHT22;1368;49.484;11.112;2022-12-18T10:20:29;-2.10;99.90
2721;DHT22;1368;49.484;11.112;2022-12-18T10:25:51;-2.30;99.90
2721;DHT22;1368;49.484;11.112;2022-12-18T10:28:19;-2.10;99.90
2721;DHT22;1368;49.484;11.112;2022-12-18T10:30:45;-2.10;99.90
2721;DHT22;1368;49.484;11.112;2022-12-18T10:33:18;-2.20;99.90
2721;DHT22;1368;49.484;11.112;2022-12-18T10:35:45;-1.80;99.90
2721;DHT22;1368;49.484;11.112;2022-12-18T10:43:32;-1.90;99.90
2721;DHT22;1368;49.484;11.112;2022-12-18T10:48:55;-2.00;99.90
2721;DHT22;1368;49.484;11.112;2022-12-18T10:51:25;-1.70;99.90
2721;DHT22;1368;49.484;11.112;2022-12-18T10:53:54;-1.50;99.90
2721;DHT22;1368;49.484;11.112;2022-12-18T10:56:21;-1.10;99.90
2721;DHT22;1368;49.484;11.112;2022-12-18T10:58:57;-0.80;99.90
2721;DHT22;1368;49.484;11.112;2022-12-18T11:01:23;-0.60;99.90
2721;DHT22;1368;49.484;11.112;2022-12-18T11:06:23;-0.30;99.90
2721;DHT22;1368;49.484;11.112;2022-12-18T11:09:21;-0.50;99.90
2721;DHT22;1368;49.484;11.112;2022-12-18T11:11:51;-0.60;99.90
2721;DHT22;1368;49.484;11.112;2022-12-18T11:14:23;-0.80;99.90
2721;DHT22;1368;49.484;11.112;2022-12-18T11:16:50;-1.10;99.90
2721;DHT22;1368;49.484;11.112;2022-12-18T11:19:25;-1.20;99.90
2721;DHT22;1368;49.484;11.112;2022-12-18T11:21:51;-1.10;99.90
2721;DHT22;1368;49.484;11.112;2022-12-18T11:24:22;-1.10;99.90
2721;DHT22;1368;49.484;11.112;2022-12-18T11:26:50;-1.00;99.90
2721;DHT22;1368;49.484;11.112;2022-12-18T11:29:17;-1.00;99.90
2721;DHT22;1368;49.484;11.112;2022-12-18T11:31:43;-1.00;99.90
2721;DHT22;1368;49.484;11.112;2022-12-18T11:34:25;-1.00;99.90
2721;DHT22;1368;49.484;11.112;2022-12-18T11:36:53;-0.90;99.90
2721;DHT22;1368;49.484;11.112;2022-12-18T11:49:51;-0.90;99.90
2721;DHT22;1368;49.484;11.112;2022-12-18T11:52:24;-1.00;99.90
2721;DHT22;1368;49.484;11.112;2022-12-18T11:54:52;-1.20;99.90
2721;DHT22;1368;49.484;11.112;2022-12-18T11:57:39;-1.40;99.90
2721;DHT22;1368;49.484;11.112;2022-12-18T12:00:20;-1.50;99.90
2721;DHT22;1368;49.484;11.112;2022-12-18T12:06:05;-1.40;99.90
2721;DHT22;1368;49.484;11.112;2022-12-18T12:08:54;-1.60;99.90
2721;DHT22;1368;49.484;11.112;2022-12-18T12:11:51;-1.60;99.90
2721;DHT22;1368;49.484;11.112;2022-12-18T12:26:06;-1.30;99.90
2721;DHT22;1368;49.484;11.112;2022-12-18T12:31:59;-0.90;99.90
2721;DHT22;1368;49.484;11.112;2022-12-18T12:39:51;0.00;99.90
2721;DHT22;1368;49.484;11.112;2022-12-18T12:42:44;-0.60;99.90
2721;DHT22;1368;49.484;11.112;2022-12-18T12:45:47;-0.50;99.90
2721;DHT22;1368;49.484;11.112;2022-12-18T12:48:46;-0.70;99.90
2721;DHT22;1368;49.484;11.112;2022-12-18T12:51:20;-0.80;99.90
2721;DHT22;1368;49.484;11.112;2022-12-18T12:53:47;-0.80;99.90
2721;DHT22;1368;49.484;11.112;2022-12-18T12:56:16;-0.90;99.90
2721;DHT22;1368;49.484;11.112;2022-12-18T12:58:49;-1.00;99.90
2721;DHT22;1368;49.484;11.112;2022-12-18T13:01:58;-1.00;99.90
2721;DHT22;1368;49.484;11.112;2022-12-18T13:04:37;-0.80;99.90
2721;DHT22;1368;49.484;11.112;2022-12-18T13:07:12;-0.80;99.90
2721;DHT22;1368;49.484;11.112;2022-12-18T13:12:55;-0.70;99.90
2721;DHT22;1368;49.484;11.112;2022-12-18T13:15:24;-0.70;99.90
2721;DHT22;1368;49.484;11.112;2022-12-18T13:20:47;-0.90;99.90
2721;DHT22;1368;49.484;11.112;2022-12-18T13:25:45;-1.20;99.90
2721;DHT22;1368;49.484;11.112;2022-12-18T13:28:15;-1.20;99.90
2721;DHT22;1368;49.484;11.112;2022-12-18T13:30:48;-1.10;99.90
2721;DHT22;1368;49.484;11.112;2022-12-18T13:38:39;-0.80;99.90
2721;DHT22;1368;49.484;11.112;2022-12-18T13:49:02;-1.30;99.90
2721;DHT22;1368;49.484;11.112;2022-12-18T13:51:31;-1.20;99.90
2721;DHT22;1368;49.484;11.112;2022-12-18T13:54:00;-1.20;99.90
2721;DHT22;1368;49.484;11.112;2022-12-18T13:56:29;-1.00;99.90
2721;DHT22;1368;49.484;11.112;2022-12-18T13:59:45;-1.20;99.90
2721;DHT22;1368;49.484;11.112;2022-12-18T14:02:15;-1.10;99.90
2721;DHT22;1368;49.484;11.112;2022-12-18T14:04:45;-1.10;99.90
2721;DHT22;1368;49.484;11.112;2022-12-18T14:07:14;-1.20;99.90
2721;DHT22;1368;49.484;11.112;2022-12-18T14:09:43;-1.30;99.90
2721;DHT22;1368;49.484;11.112;2022-12-18T14:12:32;-1.40;99.90
2721;DHT22;1368;49.484;11.112;2022-12-18T14:18:03;-1.30;99.90
2721;DHT22;1368;49.484;11.112;2022-12-18T14:20:34;-1.30;99.90
2721;DHT22;1368;49.484;11.112;2022-12-18T14:23:00;-1.30;99.90
2721;DHT22;1368;49.484;11.112;2022-12-18T14:25:30;-1.40;99.90
2721;DHT22;1368;49.484;11.112;2022-12-18T14:28:14;-1.60;99.90
2721;DHT22;1368;49.484;11.112;2022-12-18T14:30:45;-1.60;99.90
2721;DHT22;1368;49.484;11.112;2022-12-18T14:33:22;-1.60;99.90
2721;DHT22;1368;49.484;11.112;2022-12-18T14:36:05;-1.60;99.90
2721;DHT22;1368;49.484;11.112;2022-12-18T14:38:35;-1.60;99.90
2721;DHT22;1368;49.484;11.112;2022-12-18T14:41:09;-1.60;99.90
2721;DHT22;1368;49.484;11.112;2022-12-18T14:43:38;-1.60;99.90
2721;DHT22;1368;49.484;11.112;2022-12-18T14:46:06;-1.60;99.90
2721;DHT22;1368;49.484;11.112;2022-12-18T14:48:50;-1.50;99.90
2721;DHT22;1368;49.484;11.112;2022-12-18T14:51:18;-1.60;99.90
2721;DHT22;1368;49.484;11.112;2022-12-18T14:53:52;-1.60;99.90
2721;DHT22;1368;49.484;11.112;2022-12-18T14:56:30;-1.60;99.90
2721;DHT22;1368;49.484;11.112;2022-12-18T14:58:57;-1.80;99.90
2721;DHT22;1368;49.484;11.112;2022-12-18T15:01:35;-2.00;99.90
2721;DHT22;1368;49.484;11.112;2022-12-18T15:04:02;-1.60;99.90
2721;DHT22;1368;49.484;11.112;2022-12-18T15:06:35;-2.20;99.90
2721;DHT22;1368;49.484;11.112;2022-12-18T15:09:22;-2.30;99.90
2721;DHT22;1368;49.484;11.112;2022-12-18T15:11:48;-2.30;99.90
2721;DHT22;1368;49.484;11.112;2022-12-18T15:14:42;-2.50;99.90
2721;DHT22;1368;49.484;11.112;2022-12-18T15:17:34;-2.50;99.90
2721;DHT22;1368;49.484;11.112;2022-12-18T15:20:02;-2.50;99.90
2721;DHT22;1368;49.484;11.112;2022-12-18T15:22:35;-2.50;99.90
2721;DHT22;1368;49.484;11.112;2022-12-18T15:25:03;-2.60;99.90
2721;DHT22;1368;49.484;11.112;2022-12-18T15:27:46;-2.70;99.90
2721;DHT22;1368;49.484;11.112;2022-12-18T15:30:18;-2.80;99.90
2721;DHT22;1368;49.484;11.112;2022-12-18T15:32:44;-2.70;99.90
2721;DHT22;1368;49.484;11.112;2022-12-18T15:35:24;-2.60;99.90
2721;DHT22;1368;49.484;11.112;2022-12-18T15:37:51;-2.70;99.90
2721;DHT22;1368;49.484;11.112;2022-12-18T15:40:22;-2.50;99.90
2721;DHT22;1368;49.484;11.112;2022-12-18T15:42:53;-2.50;99.90
2721;DHT22;1368;49.484;11.112;2022-12-18T15:45:37;-2.50;99.90
2721;DHT22;1368;49.484;11.112;2022-12-18T15:48:22;-2.50;99.90
2721;DHT22;1368;49.484;11.112;2022-12-18T15:50:52;-2.30;99.90
2721;DHT22;1368;49.484;11.112;2022-12-18T15:53:18;-2.50;99.90
2721;DHT22;1368;49.484;11.112;2022-12-18T15:55:44;-2.50;99.90
2721;DHT22;1368;49.484;11.112;2022-12-18T15:58:28;-2.40;99.90
2721;DHT22;1368;49.484;11.112;2022-12-18T16:00:55;-2.40;99.90
2721;DHT22;1368;49.484;11.112;2022-12-18T16:03:23;-2.50;99.90
2721;DHT22;1368;49.484;11.112;2022-12-18T16:05:49;-2.40;99.90
2721;DHT22;1368;49.484;11.112;2022-12-18T16:08:14;-2.40;99.90
2721;DHT22;1368;49.484;11.112;2022-12-18T16:10:40;-2.30;99.90
2721;DHT22;1368;49.484;11.112;2022-12-18T16:13:09;-2.30;99.90
2721;DHT22;1368;49.484;11.112;2022-12-18T16:15:35;-2.20;99.90
2721;DHT22;1368;49.484;11.112;2022-12-18T16:18:00;-2.20;99.90
2721;DHT22;1368;49.484;11.112;2022-12-18T16:20:26;-2.30;99.90
2721;DHT22;1368;49.484;11.112;2022-12-18T16:22:51;-2.30;99.90
2721;DHT22;1368;49.484;11.112;2022-12-18T16:25:27;-2.00;99.90
2721;DHT22;1368;49.484;11.112;2022-12-18T16:27:54;-2.10;99.90
2721;DHT22;1368;49.484;11.112;2022-12-18T16:30:27;-2.20;99.90
2721;DHT22;1368;49.484;11.112;2022-12-18T16:32:54;-2.60;99.90
2721;DHT22;1368;49.484;11.112;2022-12-18T16:35:20;-2.60;99.90
2721;DHT22;1368;49.484;11.112;2022-12-18T16:37:45;-2.80;99.90
2721;DHT22;1368;49.484;11.112;2022-12-18T16:40:13;-2.80;99.90
2721;DHT22;1368;49.484;11.112;2022-12-18T16:42:41;-2.90;99.90
2721;DHT22;1368;49.484;11.112;2022-12-18T16:45:08;-3.00;99.90
2721;DHT22;1368;49.484;11.112;2022-12-18T16:47:34;-3.00;99.90
2721;DHT22;1368;49.484;11.112;2022-12-18T16:50:00;-2.90;99.90
2721;DHT22;1368;49.484;11.112;2022-12-18T16:52:26;-3.00;99.90
2721;DHT22;1368;49.484;11.112;2022-12-18T16:54:51;-2.90;99.90
2721;DHT22;1368;49.484;11.112;2022-12-18T16:57:18;-2.80;99.90
2721;DHT22;1368;49.484;11.112;2022-12-18T16:59:44;-2.80;99.90
2721;DHT22;1368;49.484;11.112;2022-12-18T17:04:40;-3.10;99.90
2721;DHT22;1368;49.484;11.112;2022-12-18T17:07:07;-3.00;99.90
2721;DHT22;1368;49.484;11.112;2022-12-18T17:09:32;-2.90;99.90
2721;DHT22;1368;49.484;11.112;2022-12-18T17:11:58;-2.60;99.90
2721;DHT22;1368;49.484;11.112;2022-12-18T17:14:25;-3.00;99.90
2721;DHT22;1368;49.484;11.112;2022-12-18T17:16:52;-3.00;99.90
2721;DHT22;1368;49.484;11.112;2022-12-18T17:19:18;-3.10;99.90
2721;DHT22;1368;49.484;11.112;2022-12-18T17:21:46;-3.10;99.90
2721;DHT22;1368;49.484;11.112;2022-12-18T17:24:12;-3.00;99.90
2721;DHT22;1368;49.484;11.112;2022-12-18T17:26:38;-3.10;99.90
2721;DHT22;1368;49.484;11.112;2022-12-18T17:29:03;-3.30;99.90
2721;DHT22;1368;49.484;11.112;2022-12-18T17:31:30;-3.30;99.90
2721;DHT22;1368;49.484;11.112;2022-12-18T17:33:56;-3.40;99.90
2721;DHT22;1368;49.484;11.112;2022-12-18T17:36:22;-3.40;99.90
2721;DHT22;1368;49.484;11.112;2022-12-18T17:38:53;-3.30;99.90
2721;DHT22;1368;49.484;11.112;2022-12-18T17:41:20;-3.10;99.90
2721;DHT22;1368;49.484;11.112;2022-12-18T17:43:57;-3.20;99.90
2721;DHT22;1368;49.484;11.112;2022-12-18T17:46:23;-3.10;99.90